Skip to main content

NOAA/GLERL Met Station at Muskegon, MI

Previous 5 days (top of hour only)
See also Previous 3 Hours (2 minute increments)
Jump down to Data
Switch to [English][Metric]
Zoom: Click and drag, Pan: shift-click and drag, Unzoom: double-click, Unzoom All






Note: Speed = mean wind during 2-minute period at top of hour,
Gust = max wind during 2-minute period at top of hour,
Peak = max wind during entire hour.
• See also 5-day windrose plot


NOAA/GLERL Met Station at Muskegon, MI

Previous 5 days (top of hour only)
See also Previous 3 Hours (2 minute increments)
Jump up to Graphs
Switch to [English][Metric]
                  Wind  Wind  Wind   Air   Dew   Rel     Sta   PAR
                   Spd   Gst   Dir  Temp    Pt   Hum    Pres uE/m2/
YYYY-MM-DD   EST   kts   kts   deg     F     F     %   in Hg   sec
2024-02-26 08:00 -99.0 -99.0   -99  34.7  27.7  75.8   29.26   340
2024-02-26 07:00 -99.0 -99.0   -99  34.0  28.8  80.9   29.27     2
2024-02-26 06:00 -99.0 -99.0   -99  35.2  29.7  79.8   29.25     2
2024-02-26 05:00 -99.0 -99.0   -99  35.6  30.4  81.1   29.23     2
2024-02-26 04:00 -99.0 -99.0   -99  36.7  31.1  80.2   29.22     2
2024-02-26 03:00 -99.0 -99.0   -99  34.9  31.5  87.2   29.22     2
2024-02-26 02:00 -99.0 -99.0   -99  40.1  34.3  79.8   29.22     2
2024-02-26 01:00 -99.0 -99.0   -99  38.7  33.8  82.4   29.20     2
2024-02-26 00:00 -99.0 -99.0   -99  37.2  34.0  88.2   29.20     2
2024-02-25 23:00 -99.0 -99.0   -99  40.5  35.6  82.5   29.19     2
2024-02-25 22:00 -99.0 -99.0   -99  40.6  36.1  83.6   29.17     2
2024-02-25 21:00 -99.0 -99.0   -99  40.1  35.6  83.9   29.15     2
2024-02-25 20:00 -99.0 -99.0   -99  40.3  35.6  83.4   29.13     2
2024-02-25 19:00 -99.0 -99.0   -99  39.4  35.4  85.4   29.12     2
2024-02-25 18:00 -99.0 -99.0   -99  39.7  35.2  83.4   29.11    84
2024-02-25 17:00 -99.0 -99.0   -99  39.2  34.7  83.9   29.09   259
2024-02-25 16:00 -99.0 -99.0   -99  40.3  34.9  81.1   29.08   522
2024-02-25 15:00 -99.0 -99.0   -99  42.3  34.9  75.2   29.09   939
2024-02-25 14:00 -99.0 -99.0   -99  39.2  33.4  79.6   29.09  1550
2024-02-25 13:00 -99.0 -99.0   -99  39.0  33.1  79.1   29.11  1681
2024-02-25 12:00 -99.0 -99.0   -99  38.3  32.7  80.0   29.11  1553
2024-02-25 11:00 -99.0 -99.0   -99  37.6  31.8  79.8   29.12   422
2024-02-25 10:00 -99.0 -99.0   -99  37.2  30.7  76.9   29.12   520
2024-02-25 09:00 -99.0 -99.0   -99  36.0  30.0  78.9   29.14   287
2024-02-25 08:00 -99.0 -99.0   -99  34.7  29.3  80.4   29.15   203
2024-02-25 07:00 -99.0 -99.0   -99  33.8  28.8  81.5   29.16     2
2024-02-25 06:00 -99.0 -99.0   -99  34.9  28.0  75.6   29.18     2
2024-02-25 05:00 -99.0 -99.0   -99  35.1  28.4  76.2   29.19     2
2024-02-25 04:00 -99.0 -99.0   -99  35.2  28.0  74.9   29.22     2
2024-02-25 03:00 -99.0 -99.0   -99  35.6  26.8  70.2   29.26     2
2024-02-25 02:00 -99.0 -99.0   -99  35.6  27.0  70.6   29.28     2
2024-02-25 01:00 -99.0 -99.0   -99  35.2  25.5  67.0   29.30     2
2024-02-25 00:00 -99.0 -99.0   -99  34.7  27.5  74.5   29.33     2
2024-02-24 23:00 -99.0 -99.0   -99  33.1  26.1  75.0   29.34     2
2024-02-24 22:00 -99.0 -99.0   -99  32.4  23.9  70.7   29.34     2
2024-02-24 21:00 -99.0 -99.0   -99  30.6  21.0  67.0   29.36     2
2024-02-24 20:00 -99.0 -99.0   -99  28.6  18.0  64.0   29.36     2
2024-02-24 19:00 -99.0 -99.0   -99  27.5  14.4  57.6   29.38     2
2024-02-24 18:00 -99.0 -99.0   -99  27.0  12.2  53.5   29.40   180
2024-02-24 17:00 -99.0 -99.0   -99  26.4  13.6  58.3   29.41  1018
2024-02-24 16:00 -99.0 -99.0   -99  26.8  14.9  60.3   29.44  1341
2024-02-24 15:00 -99.0 -99.0   -99  26.4  13.5  57.6   29.45  1114
2024-02-24 14:00 -99.0 -99.0   -99  25.3   8.1  47.2   29.45  1581
2024-02-24 13:00 -99.0 -99.0   -99  24.6   9.0  50.9   29.45  1612
2024-02-24 12:00 -99.0 -99.0   -99  26.2   0.7  32.4   29.46  1587
2024-02-24 11:00 -99.0 -99.0   -99  22.1   2.5  42.0   29.46  1520
2024-02-24 10:00 -99.0 -99.0   -99  20.3   4.3  49.2   29.47   938
2024-02-24 09:00 -99.0 -99.0   -99  17.2   4.6  57.1   29.45  1128
2024-02-24 08:00 -99.0 -99.0   -99  15.4   4.6  61.2   29.45   398
2024-02-24 07:00 -99.0 -99.0   -99  14.7   3.6  60.6   29.43     2
2024-02-24 06:00 -99.0 -99.0   -99  15.1   3.0  58.0   29.41     2
2024-02-24 05:00 -99.0 -99.0   -99  15.8   3.4  57.7   29.38     2
2024-02-24 04:00 -99.0 -99.0   -99  16.3   4.8  59.5   29.36     2
2024-02-24 03:00 -99.0 -99.0   -99  17.4   5.5  58.7   29.35     2
2024-02-24 02:00 -99.0 -99.0   -99  18.3   6.4  58.8   29.33     2
2024-02-24 01:00 -99.0 -99.0   -99  19.9   7.3  57.5   29.31     2
2024-02-24 00:00 -99.0 -99.0   -99  22.1   6.4  50.5   29.29     2
2024-02-23 23:00 -99.0 -99.0   -99  23.2   6.6  48.5   29.27     2
2024-02-23 22:00 -99.0 -99.0   -99  24.8   7.2  46.3   29.25     2
2024-02-23 21:00 -99.0 -99.0   -99  27.1  11.8  52.0   29.22     2
2024-02-23 20:00 -99.0 -99.0   -99  27.9  14.5  56.6   29.19     2
2024-02-23 19:00 -99.0 -99.0   -99  29.7  15.4  54.8   29.17     2
2024-02-23 18:00 -99.0 -99.0   -99  31.8  19.8  60.6   29.14    25
2024-02-23 17:00 -99.0 -99.0   -99  36.5  21.4  54.0   29.11    89
2024-02-23 16:00 -99.0 -99.0   -99  39.0  23.4  53.2   29.09   364
2024-02-23 15:00 -99.0 -99.0   -99  41.5  26.2  54.4   29.07  1453
2024-02-23 14:00 -99.0 -99.0   -99  39.9  27.5  61.2   29.08   644
2024-02-23 13:00 -99.0 -99.0   -99  39.9  27.3  60.5   29.07   352
2024-02-23 12:00 -99.0 -99.0   -99  39.4  28.8  65.5   29.07   418
2024-02-23 11:00 -99.0 -99.0   -99  40.8  29.5  63.9   29.06   850
2024-02-23 10:00 -99.0 -99.0   -99  39.7  30.4  69.0   29.05   829
2024-02-23 09:00 -99.0 -99.0   -99  38.8  31.5  74.8   29.04  1070
2024-02-23 08:00 -99.0 -99.0   -99  37.0  34.2  88.8   29.02   291
2024-02-23 07:00 -99.0 -99.0   -99  36.3  34.7  94.0   29.00     2
2024-02-23 06:00 -99.0 -99.0   -99  36.0  34.5  94.1   28.99     2
2024-02-23 05:00 -99.0 -99.0   -99  36.3  34.3  92.6   28.98     2
2024-02-23 04:00 -99.0 -99.0   -99  36.5  34.2  91.1   28.98     2
2024-02-23 03:00 -99.0 -99.0   -99  38.8  33.6  80.8   28.98     2
2024-02-23 02:00 -99.0 -99.0   -99  40.6  34.5  78.8   28.96     2
2024-02-23 01:00 -99.0 -99.0   -99  40.8  35.1  80.2   28.97     2
2024-02-23 00:00 -99.0 -99.0   -99  37.0  35.1  92.1   28.98     2
2024-02-22 23:00 -99.0 -99.0   -99  37.4  35.1  91.2   29.00     2
2024-02-22 22:00 -99.0 -99.0   -99  36.9  35.2  93.6   29.01     2
2024-02-22 21:00 -99.0 -99.0   -99  36.1  34.9  95.4   29.02     2
2024-02-22 20:00 -99.0 -99.0   -99  36.1  35.1  95.5   29.02     2
2024-02-22 19:00 -99.0 -99.0   -99  37.4  36.0  93.8   29.03     2
2024-02-22 18:00 -99.0 -99.0   -99  38.8  35.2  86.8   29.03   102
2024-02-22 17:00 -99.0 -99.0   -99  39.6  35.2  84.5   29.03  1087
2024-02-22 16:00 -99.0 -99.0   -99  40.3  35.1  81.6   29.04  1091
2024-02-22 15:00 -99.0 -99.0   -99  40.6  34.9  79.3   29.05  1563
2024-02-22 14:00 -99.0 -99.0   -99  39.7  34.5  81.4   29.07  1648
2024-02-22 13:00 -99.0 -99.0   -99  40.1  33.8  78.0   29.09  1183
2024-02-22 12:00 -99.0 -99.0   -99  39.4  33.8  80.0   29.11  1513
2024-02-22 11:00 -99.0 -99.0   -99  44.4  33.6  65.6   29.12  1363
2024-02-22 10:00 -99.0 -99.0   -99  37.6  31.8  79.2   29.13   567
2024-02-22 09:00 -99.0 -99.0   -99  34.5  31.1  86.8   29.13   692
2024-02-22 08:00 -99.0 -99.0   -99  32.2  30.2  92.2   29.13    68
2024-02-22 07:00 -99.0 -99.0   -99  31.6  29.7  92.8   29.14     2
2024-02-22 06:00 -99.0 -99.0   -99  32.4  30.6  92.9   29.14     2
2024-02-22 05:00 -99.0 -99.0   -99  32.9  31.1  93.4   29.14     2
2024-02-22 04:00 -99.0 -99.0   -99  32.4  30.7  93.7   29.15     2
2024-02-22 03:00 -99.0 -99.0   -99  33.4  32.0  94.3   29.18     2
2024-02-22 02:00 -99.0 -99.0   -99  33.6  31.5  92.0   29.19     2
2024-02-22 01:00 -99.0 -99.0   -99  36.5  33.8  89.8   29.20     2
2024-02-22 00:00 -99.0 -99.0   -99  38.3  34.7  86.3   29.22     2
2024-02-21 23:00 -99.0 -99.0   -99  37.2  34.0  88.0   29.21     2
2024-02-21 22:00 -99.0 -99.0   -99  38.1  35.2  89.1   29.22     2
2024-02-21 21:00 -99.0 -99.0   -99  39.7  35.2  84.2   29.20     2
2024-02-21 20:00 -99.0 -99.0   -99  40.8  36.5  84.1   29.20     2
2024-02-21 19:00 -99.0 -99.0   -99  42.1  36.7  81.2   29.20     2